Time;durP1;ratioP1;P1;durP2;ratioP2;P2;SDS_P1;SDS_P2;PMS_P1;PMS_P2;Temp;Humidity;BMP_temperature;BMP_pressure;BME280_temperature;BME280_humidity;BME280_pressure;Samples;Min_cycle;Max_cycle;Signal;HPM_P1;HPM_P2
2021/01/15 00:00:00;;;;;;;15.88;9.73;;;;;;;-1.64;74.58;95646.16;4974309;28;20407;-47
2021/01/15 00:02:31;;;;;;;15.75;9.48;;;;;;;-1.59;74.44;95643.53;4992643;28;20074;-48
2021/01/15 00:04:59;;;;;;;16.58;9.60;;;;;;;-1.44;73.70;95654.16;4992322;28;20082;-47
2021/01/15 00:07:29;;;;;;;18.55;10.00;;;;;;;-1.46;73.70;95648.34;4991934;28;20138;-47
2021/01/15 00:09:55;;;;;;;14.77;10.20;;;;;;;-1.66;74.51;95638.47;4972119;28;20054;-48
2021/01/15 00:12:21;;;;;;;17.58;10.43;;;;;;;-1.70;74.95;95636.59;4971725;28;20146;-46
2021/01/15 00:14:48;;;;;;;19.42;10.20;;;;;;;-1.74;74.87;95630.22;4972678;28;20058;-46
2021/01/15 00:17:14;;;;;;;17.38;10.23;;;;;;;-1.73;75.00;95648.50;4966968;28;20055;-48
2021/01/15 00:19:41;;;;;;;16.70;10.15;;;;;;;-1.65;74.54;95645.38;4952712;28;20110;-47
2021/01/15 00:22:07;;;;;;;19.63;11.85;;;;;;;-1.65;73.60;95637.41;4954020;28;20075;-47
2021/01/15 00:24:33;;;;;;;16.90;10.38;;;;;;;-1.76;74.45;95638.44;4952615;29;20552;-44
2021/01/15 00:27:00;;;;;;;16.42;10.18;;;;;;;-1.89;74.73;95634.41;4953187;28;20075;-43
2021/01/15 00:29:27;;;;;;;17.52;9.93;;;;;;;-2.10;74.64;95597.50;4963345;28;20071;-46
2021/01/15 00:31:53;;;;;;;15.50;10.18;;;;;;;-1.86;74.55;95633.09;4972480;28;20055;-48
2021/01/15 00:34:21;;;;;;;19.42;10.45;;;;;;;-2.09;75.66;95625.59;4970973;28;20141;-47
2021/01/15 00:36:49;;;;;;;17.17;10.13;;;;;;;-2.53;75.71;95618.00;4965754;28;20075;-46
2021/01/15 00:39:17;;;;;;;16.65;10.35;;;;;;;-2.38;76.56;95647.19;4952870;28;20453;-50
2021/01/15 00:41:45;;;;;;;19.00;10.95;;;;;;;-2.48;77.53;95632.03;4953258;28;20109;-50
2021/01/15 00:44:12;;;;;;;22.15;11.63;;;;;;;-2.51;77.87;95645.00;4936662;29;20055;-46
2021/01/15 00:46:46;;;;;;;16.92;10.55;;;;;;;-2.38;77.84;95637.38;4952231;28;20222;-45
2021/01/15 00:49:16;;;;;;;16.48;10.32;;;;;;;-2.21;76.02;95636.41;4960638;28;20156;-47
2021/01/15 00:51:48;;;;;;;17.63;10.60;;;;;;;-2.23;76.43;95639.31;4956640;28;20043;-44
2021/01/15 00:54:16;;;;;;;18.23;10.82;;;;;;;-2.10;75.34;95631.97;4971479;28;20109;-46
2021/01/15 00:56:43;;;;;;;19.30;11.52;;;;;;;-2.15;75.64;95640.69;4970734;28;20576;-45
2021/01/15 00:59:16;;;;;;;17.73;10.63;;;;;;;-2.05;75.24;95634.63;4966549;28;20095;-49
2021/01/15 01:01:53;;;;;;;18.60;10.25;;;;;;;-2.05;75.42;95647.88;4951673;28;20129;-46
2021/01/15 01:04:20;;;;;;;17.00;10.32;;;;;;;-2.11;75.22;95647.09;4951416;28;20055;-47
2021/01/15 01:06:46;;;;;;;18.83;11.23;;;;;;;-2.10;75.48;95648.66;4952633;28;20059;-47
2021/01/15 01:09:12;;;;;;;18.75;10.95;;;;;;;-2.09;75.04;95646.81;4952502;28;20082;-48
2021/01/15 01:11:39;;;;;;;18.70;11.48;;;;;;;-2.25;75.76;95641.44;4956665;28;20051;-49
2021/01/15 01:14:06;;;;;;;16.92;11.50;;;;;;;-2.29;76.05;95644.88;4956650;28;20051;-45
2021/01/15 01:16:32;;;;;;;19.05;11.05;;;;;;;-2.44;76.31;95637.63;4956517;28;20090;-48
2021/01/15 01:18:59;;;;;;;20.42;11.32;;;;;;;-2.60;77.14;95644.69;4959969;28;20436;-44
2021/01/15 01:21:27;;;;;;;18.13;11.30;;;;;;;-2.70;77.70;95632.16;4975573;28;20054;-45
2021/01/15 01:23:53;;;;;;;19.75;12.32;;;;;;;-2.67;77.73;95638.81;4974152;28;20055;-45
2021/01/15 01:26:20;;;;;;;19.60;11.50;;;;;;;-2.69;77.15;95636.44;4975688;28;20043;-44
2021/01/15 01:28:47;;;;;;;22.10;12.32;;;;;;;-2.77;77.17;95634.25;4958415;28;20121;-47
2021/01/15 01:31:15;;;;;;;21.20;12.43;;;;;;;-2.63;76.79;95640.72;4971487;28;20059;-45
2021/01/15 01:33:42;;;;;;;20.55;12.23;;;;;;;-2.74;77.26;95633.75;4961983;28;20055;-47
2021/01/15 01:36:10;;;;;;;19.75;10.85;;;;;;;-2.83;77.82;95632.63;4972667;28;20838;-44
2021/01/15 01:38:38;;;;;;;19.20;12.35;;;;;;;-2.84;78.31;95629.19;4956021;28;20074;-44
2021/01/15 01:41:05;;;;;;;20.73;12.55;;;;;;;-2.76;77.52;95633.22;4956025;28;20059;-49
2021/01/15 01:43:32;;;;;;;21.00;12.73;;;;;;;-2.75;77.40;95632.16;4955830;28;20094;-44
2021/01/15 01:46:01;;;;;;;24.35;13.02;;;;;;;-2.74;77.52;95623.16;4965921;28;20057;-44
2021/01/15 01:48:28;;;;;;;21.30;12.98;;;;;;;-2.83;77.38;95627.31;4974827;28;20065;-45
2021/01/15 01:50:55;;;;;;;22.88;13.73;;;;;;;-2.67;77.16;95636.16;4955988;28;20055;-45
2021/01/15 01:53:26;;;;;;;23.95;13.43;;;;;;;-2.65;76.64;95653.41;4967507;28;20082;-44
2021/01/15 01:55:53;;;;;;;23.00;12.35;;;;;;;-2.56;76.45;95637.03;4975320;28;20105;-47
2021/01/15 01:58:20;;;;;;;24.42;13.07;;;;;;;-2.44;76.00;95640.28;4972373;28;20142;-45
2021/01/15 02:00:48;;;;;;;23.25;12.30;;;;;;;-2.36;74.90;95640.59;4955660;28;20079;-45
2021/01/15 02:03:16;;;;;;;22.05;12.52;;;;;;;-2.45;75.66;95636.81;4955585;28;20472;-44
2021/01/15 02:05:43;;;;;;;25.15;11.68;;;;;;;-2.35;74.97;95641.38;4955676;28;20097;-47
2021/01/15 02:08:10;;;;;;;23.60;12.32;;;;;;;-2.24;74.57;95647.53;4955091;28;20059;-44
2021/01/15 02:10:49;;;;;;;23.90;12.60;;;;;;;-2.24;74.43;95637.75;4955649;28;20055;-44
2021/01/15 02:13:31;;;;;;;24.15;12.82;;;;;;;-2.24;73.86;95632.44;4955451;28;20055;-44
2021/01/15 02:16:03;;;;;;;23.90;12.18;;;;;;;-2.36;74.67;95642.44;4955236;28;20114;-46
2021/01/15 02:18:38;;;;;;;24.75;12.63;;;;;;;-2.56;75.40;95639.69;4954952;28;20138;-44
2021/01/15 02:21:23;;;;;;;24.45;13.05;;;;;;;-2.59;76.05;95641.00;4955048;28;20055;-44
2021/01/15 02:23:50;;;;;;;23.98;12.82;;;;;;;-2.54;75.58;95637.56;4955051;28;20087;-45
2021/01/15 02:26:57;;;;;;;30.20;14.43;;;;;;;-2.48;75.43;95641.84;4954903;28;20139;-49
2021/01/15 02:29:27;;;;;;;20.20;12.77;;;;;;;-2.54;75.40;95643.66;4955128;28;20130;-46
2021/01/15 02:32:24;;;;;;;24.35;14.32;;;;;;;-2.54;75.57;95632.28;4970472;28;20071;-43
2021/01/15 02:35:10;;;;;;;23.73;13.38;;;;;;;-2.67;75.34;95636.97;4970194;28;20053;-46
2021/01/15 02:37:54;;;;;;;27.17;13.85;;;;;;;-2.68;75.19;95632.72;4962849;28;20126;-42
2021/01/15 02:40:33;;;;;;;25.20;13.30;;;;;;;-2.73;75.62;95632.72;4954771;28;20078;-46
2021/01/15 02:43:01;;;;;;;27.70;14.40;;;;;;;-2.69;75.60;95639.09;4954654;28;20420;-44
2021/01/15 02:45:29;;;;;;;24.00;13.77;;;;;;;-2.60;74.94;95631.44;4954418;28;20125;-47
2021/01/15 02:48:00;;;;;;;26.60;14.70;;;;;;;-2.70;75.27;95631.38;4954339;28;20054;-46
2021/01/15 02:50:27;;;;;;;23.35;13.45;;;;;;;-2.69;75.44;95633.78;4954534;28;20059;-46
2021/01/15 02:52:54;;;;;;;23.98;13.80;;;;;;;-2.69;75.32;95636.44;4954906;28;20047;-44
2021/01/15 02:55:21;;;;;;;22.73;13.30;;;;;;;-2.78;75.48;95632.66;4955865;28;20051;-44
2021/01/15 02:57:48;;;;;;;23.50;13.90;;;;;;;-2.80;75.16;95629.47;4955377;28;20074;-43
2021/01/15 03:00:17;;;;;;;22.63;14.25;;;;;;;-2.69;74.98;95641.72;4954031;28;20083;-46
2021/01/15 03:03:08;;;;;;;26.25;13.25;;;;;;;-2.70;74.74;95644.63;4954597;28;20051;-51
2021/01/15 03:05:43;;;;;;;28.42;14.52;;;;;;;-2.77;75.02;95644.84;4954326;28;20109;-48
2021/01/15 03:08:12;;;;;;;27.00;13.75;;;;;;;-2.77;75.07;95649.34;4954191;29;20169;-48
2021/01/15 03:10:39;;;;;;;27.25;14.85;;;;;;;-2.84;75.01;95663.59;4954488;28;20079;-46
2021/01/15 03:13:07;;;;;;;27.45;14.60;;;;;;;-2.79;74.98;95652.25;4954362;28;20517;-51
2021/01/15 03:15:36;;;;;;;25.95;15.23;;;;;;;-3.03;75.73;95635.13;4954685;28;20223;-48
2021/01/15 03:18:05;;;;;;;27.25;15.02;;;;;;;-2.97;75.65;95660.59;4954017;28;20055;-48
2021/01/15 03:20:32;;;;;;;28.85;14.30;;;;;;;-2.95;75.83;95663.78;4954227;28;20059;-43
2021/01/15 03:22:59;;;;;;;27.10;14.32;;;;;;;-3.12;75.94;95632.97;4953884;28;20139;-43
2021/01/15 03:25:25;;;;;;;25.65;14.88;;;;;;;-2.87;75.85;95656.16;4953705;28;20129;-47
2021/01/15 03:27:56;;;;;;;27.30;15.13;;;;;;;-2.86;75.25;95656.94;4952646;28;20051;-45
2021/01/15 03:30:26;;;;;;;24.42;14.07;;;;;;;-2.92;75.64;95660.63;4953580;28;20464;-43
2021/01/15 03:32:54;;;;;;;25.83;14.65;;;;;;;-2.87;75.44;95663.31;4953166;28;20067;-43
2021/01/15 03:35:24;;;;;;;27.58;14.40;;;;;;;-2.87;75.37;95658.00;4972865;28;20134;-44
2021/01/15 03:38:03;;;;;;;26.65;14.63;;;;;;;-2.86;75.40;95657.78;4961036;28;20055;-48
2021/01/15 03:40:31;;;;;;;24.38;14.38;;;;;;;-2.82;75.34;95668.66;4953579;28;20117;-45
2021/01/15 03:42:58;;;;;;;27.35;15.60;;;;;;;-2.90;75.75;95659.31;4953654;28;20086;-45
2021/01/15 03:45:27;;;;;;;25.35;14.60;;;;;;;-2.89;75.60;95665.44;4953864;28;20071;-43
2021/01/15 03:47:54;;;;;;;27.67;15.30;;;;;;;-3.10;76.07;95657.31;4953758;28;20059;-44
2021/01/15 03:50:20;;;;;;;28.75;16.33;;;;;;;-3.13;76.74;95670.25;4968009;28;20105;-46
2021/01/15 03:52:47;;;;;;;27.63;15.45;;;;;;;-3.26;77.05;95668.81;4973195;28;20071;-45
2021/01/15 03:55:15;;;;;;;28.58;15.50;;;;;;;-3.27;77.19;95659.28;4972760;28;20055;-44
2021/01/15 03:57:41;;;;;;;29.30;15.85;;;;;;;-3.39;77.09;95648.06;4964142;28;20086;-45
2021/01/15 04:00:08;;;;;;;30.70;16.10;;;;;;;-3.31;77.10;95664.28;4952993;28;20048;-42
2021/01/15 04:02:37;;;;;;;29.63;16.25;;;;;;;-3.19;76.95;95666.75;4952261;29;20110;-47
2021/01/15 04:05:08;;;;;;;30.40;16.10;;;;;;;-3.07;76.22;95669.25;4953133;28;20062;-43
2021/01/15 04:07:35;;;;;;;26.55;14.57;;;;;;;-2.98;75.87;95672.22;4953277;28;20090;-45
2021/01/15 04:10:01;;;;;;;30.38;15.73;;;;;;;-2.97;75.76;95671.19;4953045;28;20501;-44
2021/01/15 04:12:30;;;;;;;30.00;16.23;;;;;;;-3.05;76.02;95664.50;4953820;28;20149;-45
2021/01/15 04:14:57;;;;;;;30.13;15.98;;;;;;;-3.01;76.08;95675.38;4963598;28;20570;-46
2021/01/15 04:17:23;;;;;;;27.45;15.90;;;;;;;-3.07;76.24;95677.19;4953112;28;20477;-43
2021/01/15 04:19:50;;;;;;;28.90;16.05;;;;;;;-3.10;76.18;95681.13;4953464;28;20138;-42
2021/01/15 04:22:16;;;;;;;29.85;16.77;;;;;;;-3.03;76.29;95680.91;4953285;28;20187;-47
2021/01/15 04:24:43;;;;;;;29.95;16.52;;;;;;;-3.09;76.19;95682.75;4953214;28;20138;-47
2021/01/15 04:27:09;;;;;;;33.10;16.77;;;;;;;-3.18;76.63;95692.19;4961056;28;20137;-49
2021/01/15 04:29:35;;;;;;;33.42;16.27;;;;;;;-3.23;76.55;95684.19;4972276;28;20053;-47
2021/01/15 04:32:03;;;;;;;33.03;16.85;;;;;;;-3.37;76.98;95672.44;4972187;28;20073;-44
2021/01/15 04:34:30;;;;;;;29.50;16.75;;;;;;;-3.39;77.79;95685.09;4972229;28;20051;-44
2021/01/15 04:36:58;;;;;;;36.83;17.85;;;;;;;-3.47;77.38;95680.25;4965028;28;20066;-43
2021/01/15 04:39:24;;;;;;;31.73;17.70;;;;;;;-3.40;77.61;95686.94;4952645;28;20125;-47
2021/01/15 04:41:52;;;;;;;31.25;17.08;;;;;;;-3.36;77.38;95689.88;4953210;28;20131;-47
2021/01/15 04:44:19;;;;;;;34.65;18.35;;;;;;;-3.26;77.31;95689.19;4953236;28;20569;-44
2021/01/15 04:46:47;;;;;;;32.95;17.50;;;;;;;-3.25;76.74;95686.31;4974166;28;20110;-42
2021/01/15 04:49:15;;;;;;;31.95;17.50;;;;;;;-3.29;76.64;95693.13;4969703;28;20221;-43
2021/01/15 04:51:41;;;;;;;34.83;17.48;;;;;;;-3.24;75.87;95687.88;4956606;28;20082;-45
2021/01/15 04:54:13;;;;;;;38.17;18.65;;;;;;;-3.38;76.60;95695.44;4958024;28;20086;-45
2021/01/15 04:56:49;;;;;;;33.80;18.60;;;;;;;-3.40;77.36;95699.38;4975702;28;20054;-43
2021/01/15 04:59:16;;;;;;;31.33;17.85;;;;;;;-3.36;76.59;95701.25;4966231;28;20477;-44
2021/01/15 05:01:45;;;;;;;33.28;18.38;;;;;;;-3.41;76.95;95710.97;4956480;28;20079;-48
2021/01/15 05:04:19;;;;;;;32.30;18.20;;;;;;;-3.41;76.67;95706.50;4956319;28;20059;-46
2021/01/15 05:06:50;;;;;;;32.70;18.23;;;;;;;-3.46;76.59;95710.94;4956689;28;20061;-45
2021/01/15 05:09:24;;;;;;;33.65;18.52;;;;;;;-3.58;76.70;95708.44;4973891;28;20077;-50
2021/01/15 05:11:52;;;;;;;32.13;18.40;;;;;;;-3.62;76.88;95704.69;4975596;28;20058;-47
2021/01/15 05:14:20;;;;;;;34.22;18.85;;;;;;;-3.60;76.72;95713.97;4975504;28;20046;-43
2021/01/15 05:16:52;;;;;;;36.45;19.33;;;;;;;-3.63;76.81;95717.13;4958773;28;20058;-45
2021/01/15 05:19:18;;;;;;;34.80;19.42;;;;;;;-3.68;77.31;95711.75;4962715;28;20122;-44
2021/01/15 05:21:50;;;;;;;37.30;19.65;;;;;;;-3.69;76.97;95715.47;4975951;28;20125;-44
2021/01/15 05:24:18;;;;;;;33.70;19.10;;;;;;;-3.63;76.84;95722.41;4975571;28;20063;-45
2021/01/15 05:26:45;;;;;;;32.25;19.15;;;;;;;-3.77;77.40;95722.00;4975705;28;20051;-45
2021/01/15 05:29:11;;;;;;;31.55;18.70;;;;;;;-3.90;78.07;95724.19;4958877;28;20147;-47
2021/01/15 05:31:57;;;;;;;32.05;18.48;;;;;;;-3.83;78.71;95730.09;4972995;28;20055;-44
2021/01/15 05:34:27;;;;;;;34.13;19.13;;;;;;;-3.92;77.79;95726.28;4975410;28;20054;-47
2021/01/15 05:36:55;;;;;;;30.67;19.50;;;;;;;-3.92;78.09;95734.22;4975001;28;20114;-46
2021/01/15 05:39:27;;;;;;;31.98;19.05;;;;;;;-4.08;78.88;95726.09;4971715;28;20476;-47
2021/01/15 05:42:01;;;;;;;33.28;17.92;;;;;;;-3.89;78.26;95736.38;4974738;28;20061;-46
2021/01/15 05:44:29;;;;;;;34.03;18.17;;;;;;;-3.93;77.43;95733.41;4975146;28;20058;-45
2021/01/15 05:46:58;;;;;;;34.97;18.60;;;;;;;-4.03;77.91;95743.84;4971209;28;20426;-47
2021/01/15 05:49:26;;;;;;;30.98;18.30;;;;;;;-4.16;78.01;95731.81;4965900;28;20456;-44
2021/01/15 05:51:53;;;;;;;31.63;18.50;;;;;;;-4.23;78.63;95741.72;4976932;28;20055;-44
2021/01/15 05:54:31;;;;;;;31.42;18.48;;;;;;;-4.12;78.09;95750.59;4956279;28;20047;-44
2021/01/15 05:56:59;;;;;;;31.90;18.88;;;;;;;-4.23;78.53;95734.59;4959328;28;20061;-46
2021/01/15 05:59:26;;;;;;;32.75;18.98;;;;;;;-4.03;77.89;95744.66;4973766;28;20074;-48
2021/01/15 06:01:56;;;;;;;37.05;20.50;;;;;;;-4.12;78.43;95753.25;4972758;28;20043;-49
2021/01/15 06:04:34;;;;;;;38.25;20.75;;;;;;;-4.29;79.14;95756.72;4957703;28;20054;-44
2021/01/15 06:07:16;;;;;;;35.10;20.70;;;;;;;-4.27;79.36;95765.19;4970131;28;20501;-45
2021/01/15 06:09:44;;;;;;;35.60;18.90;;;;;;;-4.21;79.48;95768.72;4956402;28;20054;-45
2021/01/15 06:12:18;;;;;;;35.40;19.63;;;;;;;-4.12;79.48;95774.38;4968225;28;20108;-45
2021/01/15 06:14:58;;;;;;;44.67;22.48;;;;;;;-4.02;79.15;95772.69;4967241;28;20057;-47
2021/01/15 06:17:25;;;;;;;40.88;21.70;;;;;;;-3.89;78.12;95783.94;4969888;28;20552;-48
2021/01/15 06:19:54;;;;;;;40.10;23.60;;;;;;;-3.88;78.08;95786.34;4968664;28;20066;-46
2021/01/15 06:22:44;;;;;;;38.28;20.13;;;;;;;-4.18;79.59;95785.94;4965316;28;20047;-46
2021/01/15 06:25:34;;;;;;;48.42;23.77;;;;;;;-4.47;81.93;95786.81;4958646;28;20062;-46
2021/01/15 06:28:06;;;;;;;44.67;21.88;;;;;;;-4.40;82.03;95780.56;4960515;28;20074;-46
2021/01/15 06:30:35;;;;;;;47.15;23.17;;;;;;;-4.38;82.06;95781.16;4959273;28;20079;-45
2021/01/15 06:33:13;;;;;;;39.40;21.38;;;;;;;-4.28;82.01;95791.84;4983185;23;20046;-48
2021/01/15 06:35:41;;;;;;;45.17;23.60;;;;;;;-4.23;82.06;95791.91;4973135;28;20128;-47
2021/01/15 06:38:08;;;;;;;48.08;23.42;;;;;;;-4.41;82.46;95797.47;4970724;28;20043;-47
2021/01/15 06:40:42;;;;;;;42.58;23.73;;;;;;;-4.62;83.29;95794.50;4963515;28;20146;-45
2021/01/15 06:43:12;;;;;;;46.63;25.10;;;;;;;-4.62;83.51;95793.69;4963672;28;20078;-45
2021/01/15 06:45:45;;;;;;;46.10;25.17;;;;;;;-4.51;82.61;95809.47;4971751;28;20058;-47
2021/01/15 06:48:22;;;;;;;53.92;26.27;;;;;;;-4.55;82.81;95826.84;4969939;28;20097;-45
2021/01/15 06:50:54;;;;;;;45.40;25.33;;;;;;;-4.37;82.66;95827.63;4965217;28;20059;-45
2021/01/15 06:53:27;;;;;;;45.20;24.60;;;;;;;-4.35;82.75;95828.22;4972865;28;20094;-48
2021/01/15 06:56:04;;;;;;;40.45;25.00;;;;;;;-4.37;82.70;95823.16;4972300;28;20042;-46
2021/01/15 06:58:36;;;;;;;41.63;23.70;;;;;;;-4.15;82.13;95835.63;4965570;28;20063;-47
2021/01/15 07:01:03;;;;;;;44.00;23.17;;;;;;;-4.23;81.76;95834.19;4963761;28;20377;-46
2021/01/15 07:03:54;;;;;;;46.30;25.58;;;;;;;-4.03;81.21;95841.59;4968154;28;20524;-47
2021/01/15 07:06:35;;;;;;;50.88;25.40;;;;;;;-3.94;81.26;95845.44;4967656;28;20054;-46
2021/01/15 07:09:07;;;;;;;48.13;24.90;;;;;;;-3.73;81.21;95851.03;4973196;28;20463;-50
2021/01/15 07:11:38;;;;;;;53.05;25.33;;;;;;;-3.54;79.83;95845.22;4960233;28;20062;-47
2021/01/15 07:14:05;;;;;;;44.95;24.55;;;;;;;-3.59;79.42;95829.28;4954147;29;20563;-51
2021/01/15 07:16:37;;;;;;;42.70;24.15;;;;;;;-3.50;79.47;95860.59;4971034;28;20089;-47
2021/01/15 07:19:15;;;;;;;46.22;24.88;;;;;;;-3.65;79.90;95861.97;4966392;28;20050;-51
2021/01/15 07:22:05;;;;;;;41.85;23.10;;;;;;;-3.65;79.96;95861.19;4972172;28;20102;-48
2021/01/15 07:24:34;;;;;;;44.42;23.73;;;;;;;-3.56;79.57;95867.66;4972167;28;20098;-48
2021/01/15 07:27:01;;;;;;;49.47;23.77;;;;;;;-3.77;80.52;95877.97;4954224;28;20085;-46
2021/01/15 07:29:30;;;;;;;45.67;23.15;;;;;;;-3.66;80.41;95876.25;4962975;28;21012;-46
2021/01/15 07:32:18;;;;;;;44.00;22.42;;;;;;;-3.55;79.92;95877.97;4972392;28;20138;-46
2021/01/15 07:34:49;;;;;;;46.20;22.45;;;;;;;-3.44;80.10;95883.44;4955049;28;20072;-47
2021/01/15 07:37:22;;;;;;;46.45;23.48;;;;;;;-3.25;78.54;95886.56;4957919;28;20086;-47
2021/01/15 07:40:01;;;;;;;48.85;23.13;;;;;;;-3.34;79.37;95894.16;4953718;28;20083;-48
2021/01/15 07:42:47;;;;;;;39.90;19.77;;;;;;;-3.42;80.13;95883.97;4972564;28;20066;-49
2021/01/15 07:45:22;;;;;;;35.72;19.85;;;;;;;-3.34;79.43;95891.50;4970699;28;20051;-49
2021/01/15 07:47:53;;;;;;;38.67;19.63;;;;;;;-3.45;79.82;95906.41;4956081;28;20055;-46
2021/01/15 07:50:31;;;;;;;38.03;19.67;;;;;;;-3.28;79.31;95898.47;4965980;28;20563;-47
2021/01/15 07:53:12;;;;;;;40.30;19.33;;;;;;;-3.29;79.36;95907.41;4962185;28;20051;-47
2021/01/15 07:55:52;;;;;;;42.30;20.05;;;;;;;-3.00;78.50;95912.53;4968943;28;20466;-45
2021/01/15 07:58:21;;;;;;;38.47;19.40;;;;;;;-2.77;76.92;95904.34;4953385;28;20085;-46
2021/01/15 08:00:48;;;;;;;40.42;19.83;;;;;;;-2.90;77.20;95894.13;4966655;28;20047;-46
2021/01/15 08:03:15;;;;;;;39.72;19.58;;;;;;;-3.01;77.77;95918.91;4956090;28;20050;-47
2021/01/15 08:05:44;;;;;;;40.58;20.15;;;;;;;-2.95;77.62;95917.91;4969492;28;20102;-47
2021/01/15 08:08:13;;;;;;;40.45;18.42;;;;;;;-2.76;77.31;95916.53;4953626;28;20089;-48
2021/01/15 08:10:45;;;;;;;42.28;18.98;;;;;;;-2.64;76.29;95916.38;4961327;28;20046;-47
2021/01/15 08:13:29;;;;;;;44.67;20.20;;;;;;;-2.53;76.33;95919.97;4972674;28;20727;-48
2021/01/15 08:15:56;;;;;;;43.25;20.02;;;;;;;-2.66;76.50;95924.59;4968461;28;20121;-51
2021/01/15 08:18:25;;;;;;;38.65;19.42;;;;;;;-2.82;77.43;95928.91;4971659;28;20142;-48
2021/01/15 08:20:56;;;;;;;39.38;18.10;;;;;;;-2.74;77.47;95940.91;4965274;28;20048;-50
2021/01/15 08:23:25;;;;;;;42.92;19.00;;;;;;;-2.66;76.66;95935.19;4959803;28;20109;-49
2021/01/15 08:26:13;;;;;;;42.03;19.15;;;;;;;-2.62;76.96;95933.63;4973755;28;20287;-48
2021/01/15 08:28:39;;;;;;;41.85;19.05;;;;;;;-2.76;77.23;95940.38;4971873;28;20074;-50
2021/01/15 08:31:06;;;;;;;42.08;18.58;;;;;;;-2.74;76.98;95940.13;4956669;28;20134;-52
2021/01/15 08:33:34;;;;;;;40.58;18.20;;;;;;;-2.67;76.74;95940.72;4971513;28;20077;-50
2021/01/15 08:36:03;;;;;;;42.53;18.90;;;;;;;-2.59;76.62;95935.78;4975328;28;20055;-48
2021/01/15 08:38:32;;;;;;;36.28;17.40;;;;;;;-2.73;77.31;95942.53;4966385;28;20079;-46
2021/01/15 08:41:16;;;;;;;37.88;16.63;;;;;;;-2.62;77.04;95941.59;4965323;28;20050;-48
2021/01/15 08:43:43;;;;;;;38.70;18.23;;;;;;;-2.72;77.21;95954.72;4975999;28;20059;-46
2021/01/15 08:46:17;;;;;;;38.97;18.17;;;;;;;-2.59;76.81;95946.38;4968440;28;20055;-49
2021/01/15 08:48:44;;;;;;;36.53;17.55;;;;;;;-2.46;75.59;95952.34;4972969;28;20077;-46
2021/01/15 08:51:18;;;;;;;33.03;16.17;;;;;;;-2.48;75.45;95955.22;4956444;28;20055;-48
2021/01/15 08:54:04;;;;;;;35.85;16.52;;;;;;;-2.64;75.68;95953.47;4969020;28;20130;-47
2021/01/15 08:56:40;;;;;;;34.65;16.70;;;;;;;-2.55;76.61;95959.94;4964144;28;20138;-46
2021/01/15 08:59:11;;;;;;;37.10;16.23;;;;;;;-2.35;75.63;95965.44;4956146;28;20134;-50
2021/01/15 09:01:39;;;;;;;33.75;16.45;;;;;;;-2.17;74.42;95971.47;4974874;28;20784;-47
2021/01/15 09:04:12;;;;;;;32.40;15.35;;;;;;;-2.39;74.31;95969.66;4972604;28;20166;-51
2021/01/15 09:06:40;;;;;;;32.17;16.10;;;;;;;-2.50;74.94;95975.06;4955743;28;20087;-48
2021/01/15 09:09:11;;;;;;;35.20;17.63;;;;;;;-2.70;76.16;95973.78;4955026;28;20134;-50
2021/01/15 09:11:40;;;;;;;33.70;15.70;;;;;;;-2.89;76.30;95975.16;4955806;28;20059;-49
2021/01/15 09:14:14;;;;;;;34.60;16.25;;;;;;;-2.89;77.13;95983.91;4955436;28;20047;-48
2021/01/15 09:16:43;;;;;;;33.95;15.07;;;;;;;-2.74;76.04;95980.63;4965497;28;20145;-47
2021/01/15 09:19:14;;;;;;;37.53;17.02;;;;;;;-2.57;76.03;95991.16;4968848;28;20105;-49
2021/01/15 09:21:50;;;;;;;32.38;16.65;;;;;;;-2.23;74.35;95978.56;4968458;28;20046;-50
2021/01/15 09:24:19;;;;;;;35.63;16.73;;;;;;;-1.75;73.14;95992.78;4974085;28;20544;-48
2021/01/15 09:26:45;;;;;;;40.42;17.55;;;;;;;-1.48;72.29;95997.25;4968295;28;20079;-48
2021/01/15 09:29:13;;;;;;;34.63;17.85;;;;;;;-1.24;71.10;95987.84;4954523;29;20058;-50
2021/01/15 09:31:41;;;;;;;33.78;16.02;;;;;;;-1.33;71.71;96000.03;4955314;28;20047;-49
2021/01/15 09:34:12;;;;;;;33.17;16.48;;;;;;;-1.86;72.62;96004.34;4970421;28;20053;-48
2021/01/15 09:36:41;;;;;;;29.42;16.40;;;;;;;-1.90;73.27;96000.59;4971815;28;20125;-49
2021/01/15 09:39:08;;;;;;;35.67;17.50;;;;;;;-1.82;73.04;96005.47;4957037;28;20074;-43
2021/01/15 09:41:34;;;;;;;32.13;16.02;;;;;;;-1.73;72.22;96003.94;4966083;28;20161;-45
2021/01/15 09:44:00;;;;;;;29.48;15.52;;;;;;;-1.77;72.31;96005.50;4968616;28;20624;-45
2021/01/15 09:46:28;;;;;;;33.85;16.63;;;;;;;-1.84;72.48;96012.06;4973525;28;20478;-44
2021/01/15 09:48:57;;;;;;;31.40;15.93;;;;;;;-1.92;72.82;96010.66;4971054;28;20552;-47
2021/01/15 09:51:26;;;;;;;34.15;16.73;;;;;;;-2.01;73.19;96009.53;4973701;28;20047;-44
2021/01/15 09:53:54;;;;;;;31.85;15.88;;;;;;;-1.98;73.76;96016.97;4973287;28;20047;-44
2021/01/15 09:56:26;;;;;;;30.80;16.65;;;;;;;-1.83;72.79;96024.28;4973751;28;20058;-46
2021/01/15 09:58:58;;;;;;;28.13;15.68;;;;;;;-1.98;72.78;95996.56;4966231;28;20121;-44
2021/01/15 10:01:25;;;;;;;28.33;14.95;;;;;;;-2.14;73.16;96019.47;4973527;28;20113;-46
2021/01/15 10:03:57;;;;;;;25.98;13.52;;;;;;;-2.51;74.45;96016.66;4962367;28;20055;-43
2021/01/15 10:06:31;;;;;;;26.10;13.60;;;;;;;-2.67;75.13;96020.97;4965992;28;20145;-43
2021/01/15 10:08:58;;;;;;;28.35;14.57;;;;;;;-2.33;74.30;96015.56;4956037;28;20047;-46
2021/01/15 10:11:37;;;;;;;33.08;16.13;;;;;;;-2.06;73.83;96020.88;4972014;28;20548;-47
2021/01/15 10:14:12;;;;;;;33.78;16.63;;;;;;;-1.92;73.87;95997.41;4971028;28;20078;-43
2021/01/15 10:16:40;;;;;;;29.92;16.02;;;;;;;-1.33;71.58;96018.59;4958764;28;20350;-44
2021/01/15 10:19:07;;;;;;;32.30;16.63;;;;;;;-1.98;73.01;96022.25;4959315;28;20051;-47
2021/01/15 10:21:35;;;;;;;33.05;18.08;;;;;;;-2.37;75.01;96027.72;4965371;28;20051;-46
2021/01/15 10:24:03;;;;;;;34.13;16.60;;;;;;;-1.98;73.62;96027.56;4968689;28;20064;-45
2021/01/15 10:26:31;;;;;;;39.10;18.17;;;;;;;-2.09;73.89;96031.19;4968010;28;20527;-46
2021/01/15 10:29:02;;;;;;;35.67;16.20;;;;;;;-1.96;73.94;96030.78;4962928;28;20184;-46
2021/01/15 10:31:30;;;;;;;31.38;15.70;;;;;;;-1.62;72.94;96030.56;4966125;28;20141;-45
2021/01/15 10:33:58;;;;;;;38.40;16.23;;;;;;;-1.67;72.58;96037.41;4961109;28;20050;-48
2021/01/15 10:36:25;;;;;;;28.25;14.55;;;;;;;-1.75;72.66;96032.59;4953054;28;20055;-44
2021/01/15 10:38:52;;;;;;;30.33;16.05;;;;;;;-1.85;72.74;96035.16;4967136;28;20076;-46
2021/01/15 10:41:37;;;;;;;32.13;15.00;;;;;;;-2.22;73.93;96032.34;4963507;28;20047;-48
2021/01/15 10:44:06;;;;;;;31.10;15.20;;;;;;;-2.15;74.23;96039.06;4973521;28;20058;-46
2021/01/15 10:46:43;;;;;;;30.73;16.27;;;;;;;-1.87;72.03;96029.28;4964986;28;20054;-45
2021/01/15 10:49:14;;;;;;;32.88;14.85;;;;;;;-1.45;70.56;96034.69;4967158;28;20047;-44
2021/01/15 10:51:42;;;;;;;31.63;16.20;;;;;;;-1.24;70.90;96021.56;4967993;28;20071;-47
2021/01/15 10:54:09;;;;;;;28.02;15.45;;;;;;;-0.90;70.03;96029.25;4953880;28;20059;-44
2021/01/15 10:56:36;;;;;;;30.90;16.08;;;;;;;-0.60;70.00;96029.38;4957361;28;20136;-45
2021/01/15 10:59:04;;;;;;;31.67;16.60;;;;;;;-0.43;69.33;96013.25;4971890;28;20089;-44
2021/01/15 11:01:44;;;;;;;30.40;15.93;;;;;;;-0.02;67.12;96032.00;4971590;28;20245;-45
2021/01/15 11:04:13;;;;;;;29.98;15.82;;;;;;;0.23;67.59;96029.41;4966903;28;20054;-45
2021/01/15 11:06:43;;;;;;;30.40;16.23;;;;;;;0.08;67.45;96029.34;4965153;28;20050;-48
2021/01/15 11:09:13;;;;;;;27.38;15.48;;;;;;;-0.33;67.06;96034.53;4952659;28;20508;-45
2021/01/15 11:11:59;;;;;;;29.58;16.73;;;;;;;-0.38;67.91;96028.44;4970977;28;20050;-45
2021/01/15 11:14:26;;;;;;;29.75;15.38;;;;;;;-0.62;67.82;96022.72;4972049;28;20057;-44
2021/01/15 11:16:54;;;;;;;28.88;15.80;;;;;;;-1.20;70.63;96030.66;4966735;28;20043;-45
2021/01/15 11:19:22;;;;;;;35.25;19.13;;;;;;;-1.76;71.94;95991.19;4965164;28;20039;-45
2021/01/15 11:21:50;;;;;;;26.15;15.63;;;;;;;-1.73;72.78;96034.97;4960020;28;20055;-45
2021/01/15 11:24:17;;;;;;;31.63;16.30;;;;;;;-1.68;72.71;96027.06;4953572;28;20047;-44
2021/01/15 11:26:44;;;;;;;29.13;16.95;;;;;;;-0.97;70.84;96034.78;4962387;28;20055;-45
2021/01/15 11:29:11;;;;;;;28.95;16.40;;;;;;;-0.63;69.40;96023.78;4959381;28;20051;-44
2021/01/15 11:31:39;;;;;;;27.90;14.73;;;;;;;-0.13;66.44;96031.19;4971674;28;20082;-45